Terminal Aerodrome Forecast
Issued by NWS

Home | Current Version | Previous Version | Text Only | Print | Product List | Glossary On
Versions: 1 2 3 4 5 6 7 8 9 10 11 12 13 14 15
000
FTUS43 KGRB 310520
TAFAUW
TAF
KAUW 310520Z 3106/0106 09004KT P6SM SCT120
     FM311000 11007KT P6SM VCSH BKN100
     FM311500 13011KT P6SM -SHRA SCT035 BKN060
     FM312300 18008KT 6SM -SHRA SCT030 OVC050
     FM010200 18008KT 4SM -SHRA BR BKN025 OVC040=

USA.gov is the U.S. government's official web portal to all federal, state and local government web resources and services.